createdAt,value
2024-03-26T00:01:39.331Z,65.56
2024-03-26T00:04:08.356Z,65.62
2024-03-26T00:06:35.453Z,65.66
2024-03-26T00:09:02.550Z,65.74
2024-03-26T00:11:29.584Z,65.64
2024-03-26T00:13:57.623Z,65.64
2024-03-26T00:16:24.655Z,65.60
2024-03-26T00:18:51.698Z,65.68
2024-03-26T00:21:21.344Z,65.86
2024-03-26T00:23:49.179Z,65.95
2024-03-26T00:26:17.065Z,66.07
2024-03-26T00:28:44.114Z,66.11
2024-03-26T00:31:11.294Z,66.16
2024-03-26T00:33:38.383Z,66.16
2024-03-26T00:36:05.588Z,66.17
2024-03-26T00:38:32.682Z,66.33
2024-03-26T00:40:59.874Z,66.51
2024-03-26T00:43:27.165Z,66.47
2024-03-26T00:45:54.230Z,66.47
2024-03-26T00:48:21.434Z,66.39
2024-03-26T00:50:48.466Z,66.61
2024-03-26T00:53:15.530Z,66.58
2024-03-26T00:55:42.567Z,66.63
2024-03-26T00:58:09.739Z,66.66
2024-03-26T01:00:39.319Z,66.70
2024-03-26T01:03:06.352Z,66.67
2024-03-26T01:05:33.398Z,66.79
2024-03-26T01:08:00.484Z,66.80
2024-03-26T01:10:27.540Z,66.74
2024-03-26T01:12:54.584Z,66.74
2024-03-26T01:15:21.731Z,66.81
2024-03-26T01:17:48.783Z,66.89
2024-03-26T01:20:16.499Z,66.98
2024-03-26T01:22:43.538Z,67.08
2024-03-26T01:25:10.571Z,67.14
2024-03-26T01:27:37.622Z,67.21
2024-03-26T01:30:05.449Z,67.23
2024-03-26T01:32:32.530Z,67.23
2024-03-26T01:34:59.637Z,67.32
2024-03-26T01:37:26.684Z,67.34
2024-03-26T01:39:53.709Z,67.46
2024-03-26T01:42:20.741Z,67.52
2024-03-26T01:44:47.812Z,67.64
2024-03-26T01:47:15.096Z,67.59
2024-03-26T01:49:42.142Z,67.55
2024-03-26T01:52:09.187Z,67.60
2024-03-26T01:54:36.225Z,67.60
2024-03-26T01:57:03.349Z,67.70
2024-03-26T01:59:30.381Z,67.69
2024-03-26T02:01:57.430Z,67.66
2024-03-26T02:04:24.546Z,67.64
2024-03-26T02:06:51.616Z,67.57
2024-03-26T02:09:18.698Z,67.55
2024-03-26T02:11:45.846Z,67.52
2024-03-26T02:14:13.000Z,67.54
2024-03-26T02:16:41.101Z,67.36
2024-03-26T02:19:08.732Z,67.38
2024-03-26T02:21:35.778Z,67.48
2024-03-26T02:24:03.184Z,67.34
2024-03-26T02:26:30.220Z,67.22
2024-03-26T02:28:57.284Z,67.17
2024-03-26T02:31:24.320Z,67.11
2024-03-26T02:33:51.364Z,67.05
2024-03-26T02:36:18.387Z,66.99
2024-03-26T02:38:45.497Z,67.00
2024-03-26T02:41:12.608Z,66.83
2024-03-26T02:43:39.855Z,66.84
2024-03-26T02:46:06.899Z,66.94
2024-03-26T02:48:33.922Z,67.03
2024-03-26T02:51:01.158Z,66.98
2024-03-26T02:53:28.554Z,66.84
2024-03-26T02:55:55.623Z,66.76
2024-03-26T02:58:22.799Z,66.73
2024-03-26T03:00:49.836Z,66.69
2024-03-26T03:03:16.901Z,66.62
2024-03-26T03:05:44.001Z,66.61
2024-03-26T03:08:11.056Z,66.60
2024-03-26T03:10:38.183Z,66.42
2024-03-26T03:13:05.267Z,66.37
2024-03-26T03:15:32.301Z,66.25
2024-03-26T03:17:59.381Z,66.22
2024-03-26T03:20:26.573Z,66.25
2024-03-26T03:22:53.632Z,66.22
2024-03-26T03:25:21.382Z,66.03
2024-03-26T03:27:48.441Z,66.00
2024-03-26T03:30:15.486Z,65.94
2024-03-26T03:32:42.541Z,65.73
2024-03-26T03:35:09.580Z,65.69
2024-03-26T03:37:37.438Z,65.54
2024-03-26T03:40:05.506Z,65.59
2024-03-26T03:42:32.548Z,65.54
2024-03-26T03:44:59.573Z,65.50
2024-03-26T03:47:26.661Z,65.59
2024-03-26T03:49:53.720Z,65.27
2024-03-26T03:52:20.780Z,65.13
2024-03-26T03:54:47.838Z,65.03
2024-03-26T03:57:14.908Z,65.07
2024-03-26T03:59:41.957Z,65.03
2024-03-26T04:02:08.991Z,65.04
2024-03-26T04:04:36.135Z,64.91
2024-03-26T04:07:03.247Z,64.83
2024-03-26T04:09:30.297Z,64.94
2024-03-26T04:11:57.353Z,64.95
2024-03-26T04:14:24.493Z,64.97
2024-03-26T04:16:51.533Z,65.02
2024-03-26T04:19:18.563Z,65.15
2024-03-26T04:21:45.606Z,65.23
2024-03-26T04:24:12.672Z,65.31
2024-03-26T04:26:39.835Z,65.29
2024-03-26T04:29:06.864Z,65.22
2024-03-26T04:31:34.235Z,65.27
2024-03-26T04:34:01.481Z,65.30
2024-03-26T04:36:29.750Z,65.41
2024-03-26T04:38:56.812Z,65.36
2024-03-26T04:41:25.015Z,65.35
2024-03-26T04:43:52.502Z,65.27
2024-03-26T04:46:19.594Z,65.08
2024-03-26T04:48:46.652Z,65.18
2024-03-26T04:51:13.693Z,65.26
2024-03-26T04:53:40.904Z,65.26
2024-03-26T04:56:08.058Z,65.30
2024-03-26T04:58:35.101Z,65.30
2024-03-26T05:01:02.149Z,65.41
2024-03-26T05:03:29.198Z,65.68
2024-03-26T05:05:56.238Z,65.84
2024-03-26T05:08:23.368Z,65.87
2024-03-26T05:10:50.736Z,66.09
2024-03-26T05:13:17.790Z,66.23
2024-03-26T05:15:44.865Z,66.35
2024-03-26T05:18:11.900Z,66.48
2024-03-26T05:20:38.938Z,66.62
2024-03-26T05:23:06.079Z,66.83
2024-03-26T05:25:33.125Z,66.90
2024-03-26T05:28:00.153Z,67.02
2024-03-26T05:30:27.200Z,67.03
2024-03-26T05:32:54.312Z,67.13
2024-03-26T05:35:21.554Z,67.15
2024-03-26T05:37:49.086Z,67.22
2024-03-26T05:40:16.656Z,67.28
2024-03-26T05:42:43.686Z,67.19
2024-03-26T05:45:10.726Z,67.19
2024-03-26T05:47:37.788Z,67.17
2024-03-26T05:50:05.936Z,67.10
2024-03-26T05:52:32.980Z,67.18
2024-03-26T05:55:00.226Z,67.15
2024-03-26T05:57:27.417Z,67.10
2024-03-26T05:59:54.521Z,66.95
2024-03-26T06:02:21.595Z,66.72
2024-03-26T06:04:48.634Z,66.28
2024-03-26T06:07:15.715Z,66.25
2024-03-26T06:09:42.777Z,66.34
2024-03-26T06:12:10.488Z,66.22
2024-03-26T06:14:37.633Z,66.17
2024-03-26T06:17:04.795Z,66.12
2024-03-26T06:19:31.848Z,65.93
2024-03-26T06:22:02.458Z,65.60
2024-03-26T06:24:29.543Z,65.43
2024-03-26T06:26:56.660Z,65.32
2024-03-26T06:29:23.858Z,65.33
2024-03-26T06:31:50.957Z,65.10
2024-03-26T06:34:18.047Z,65.00
2024-03-26T06:36:45.114Z,64.87
2024-03-26T06:39:14.499Z,64.64
2024-03-26T06:41:41.550Z,64.44
2024-03-26T06:44:08.840Z,64.28
2024-03-26T06:46:35.922Z,63.64
2024-03-26T06:49:03.058Z,63.11
2024-03-26T06:51:30.214Z,63.07
2024-03-26T06:53:57.488Z,62.93
2024-03-26T06:56:26.016Z,62.79
2024-03-26T06:58:53.081Z,62.85
2024-03-26T07:01:21.468Z,62.76
2024-03-26T07:03:48.599Z,62.45
2024-03-26T07:06:15.688Z,62.28
2024-03-26T07:08:44.999Z,62.01
2024-03-26T07:11:12.387Z,61.78
2024-03-26T07:13:39.461Z,61.55
2024-03-26T07:16:06.858Z,61.04
2024-03-26T07:18:33.959Z,60.84
2024-03-26T07:21:01.087Z,60.85
2024-03-26T07:23:28.213Z,60.43
2024-03-26T07:25:55.336Z,60.31
2024-03-26T07:28:22.461Z,59.90
2024-03-26T07:30:49.655Z,59.90
2024-03-26T07:33:16.815Z,59.71
2024-03-26T07:35:44.592Z,59.63
2024-03-26T07:38:11.797Z,59.24
2024-03-26T07:40:38.887Z,59.03
2024-03-26T07:43:13.503Z,59.00
2024-03-26T07:45:48.581Z,59.24
2024-03-26T07:48:16.319Z,59.15
2024-03-26T07:50:43.714Z,58.56
2024-03-26T07:53:10.954Z,58.79
2024-03-26T07:55:38.052Z,58.80
2024-03-26T07:58:05.307Z,58.71
2024-03-26T08:00:32.616Z,58.58
2024-03-26T08:02:59.785Z,58.58
2024-03-26T08:05:26.949Z,57.94
2024-03-26T08:07:57.157Z,57.51
2024-03-26T08:10:24.395Z,57.20
2024-03-26T08:12:51.815Z,57.25
2024-03-26T08:15:20.853Z,57.13
2024-03-26T08:17:48.575Z,56.94
2024-03-26T08:20:15.713Z,56.91
2024-03-26T08:22:42.967Z,56.29
2024-03-26T08:25:11.126Z,56.09
2024-03-26T08:27:40.628Z,55.94
2024-03-26T08:30:11.643Z,55.92
2024-03-26T08:32:39.067Z,55.62
2024-03-26T08:35:09.353Z,55.46
2024-03-26T08:37:36.550Z,55.11
2024-03-26T08:40:04.867Z,54.67
2024-03-26T08:42:31.974Z,53.87
2024-03-26T08:44:59.124Z,53.83
2024-03-26T08:47:26.315Z,53.79
2024-03-26T08:49:53.403Z,53.63
2024-03-26T08:52:20.478Z,53.47
2024-03-26T08:54:47.563Z,53.29
2024-03-26T08:57:16.260Z,52.96
2024-03-26T08:59:44.638Z,52.59
2024-03-26T09:02:11.742Z,51.91
2024-03-26T09:04:38.862Z,52.05
2024-03-26T09:07:05.939Z,52.03
2024-03-26T09:09:33.027Z,52.00
2024-03-26T09:12:00.194Z,51.83
2024-03-26T09:14:27.398Z,51.41
2024-03-26T09:16:54.491Z,51.75
2024-03-26T09:19:21.553Z,51.32
2024-03-26T09:21:48.627Z,50.98
2024-03-26T09:24:15.728Z,51.03
2024-03-26T09:26:42.805Z,50.99
2024-03-26T09:29:09.882Z,51.09
2024-03-26T09:31:36.999Z,50.69
2024-03-26T09:34:04.078Z,49.87
2024-03-26T09:36:31.267Z,49.44
2024-03-26T09:39:07.278Z,49.46
2024-03-26T09:41:37.438Z,49.09
2024-03-26T09:44:05.572Z,48.94
2024-03-26T09:46:32.658Z,48.75
2024-03-26T09:48:59.798Z,48.97
2024-03-26T09:51:27.606Z,48.61
2024-03-26T09:53:55.656Z,48.07
2024-03-26T09:56:22.781Z,48.01
2024-03-26T09:58:50.028Z,47.98
2024-03-26T10:01:17.690Z,47.42
2024-03-26T10:03:44.784Z,47.31
2024-03-26T10:06:11.896Z,47.53
2024-03-26T10:08:38.982Z,47.29
2024-03-26T10:11:06.100Z,46.38
2024-03-26T10:13:33.341Z,45.76
2024-03-26T10:16:01.145Z,46.45
2024-03-26T10:18:28.994Z,46.50
2024-03-26T10:20:56.314Z,46.63
2024-03-26T10:23:23.498Z,46.42
2024-03-26T10:25:50.858Z,45.83
2024-03-26T10:28:17.941Z,45.44
2024-03-26T10:30:45.133Z,45.24
2024-03-26T10:33:12.214Z,45.35
2024-03-26T10:35:39.309Z,45.06
2024-03-26T10:38:13.107Z,44.74
2024-03-26T10:40:59.997Z,44.16
2024-03-26T10:43:27.717Z,44.06
2024-03-26T10:46:03.250Z,43.79
2024-03-26T10:48:37.775Z,44.33
2024-03-26T10:51:06.852Z,44.15
2024-03-26T10:53:34.026Z,43.76
2024-03-26T10:56:01.094Z,43.48
2024-03-26T10:58:28.151Z,43.13
2024-03-26T11:00:56.869Z,42.62
2024-03-26T11:03:23.982Z,42.86
2024-03-26T11:05:51.049Z,42.54
2024-03-26T11:08:19.023Z,42.78
2024-03-26T11:11:03.902Z,42.41
2024-03-26T11:13:31.641Z,42.56
2024-03-26T11:15:58.729Z,42.59
2024-03-26T11:18:33.642Z,42.29
2024-03-26T11:21:05.287Z,42.18
2024-03-26T11:23:33.987Z,42.14
2024-03-26T11:26:01.291Z,41.94
2024-03-26T11:28:28.575Z,41.83
2024-03-26T11:30:56.654Z,41.96
2024-03-26T11:33:25.418Z,41.83
2024-03-26T11:35:53.126Z,41.93
2024-03-26T11:38:20.287Z,42.41
2024-03-26T11:40:50.671Z,42.40
2024-03-26T11:43:18.306Z,42.57
2024-03-26T11:45:45.390Z,42.35
2024-03-26T11:48:16.490Z,42.74
2024-03-26T11:50:44.760Z,42.55
2024-03-26T11:53:11.873Z,42.72
2024-03-26T11:55:39.767Z,42.56
2024-03-26T11:58:08.589Z,42.40
2024-03-26T12:00:39.988Z,42.49
2024-03-26T12:03:10.922Z,41.72
2024-03-26T12:05:38.028Z,42.09
2024-03-26T12:08:05.283Z,42.55
2024-03-26T12:10:32.478Z,42.50
2024-03-26T12:12:59.600Z,42.57
2024-03-26T12:15:26.773Z,42.60
2024-03-26T12:17:53.907Z,42.48
2024-03-26T12:20:21.044Z,42.44
2024-03-26T12:22:48.931Z,42.33
2024-03-26T12:25:16.068Z,42.44
2024-03-26T12:27:46.424Z,42.81
2024-03-26T12:30:13.950Z,43.22
2024-03-26T12:32:41.078Z,43.32
2024-03-26T12:35:09.722Z,43.20
2024-03-26T12:37:40.187Z,42.64
2024-03-26T12:40:08.193Z,42.03
2024-03-26T12:42:36.633Z,42.23
2024-03-26T12:45:04.377Z,41.55
2024-03-26T12:47:31.530Z,41.26
2024-03-26T12:50:01.512Z,41.33
2024-03-26T12:52:31.229Z,41.40
2024-03-26T12:54:58.324Z,41.58
2024-03-26T12:57:25.379Z,41.83
2024-03-26T12:59:52.489Z,42.01
2024-03-26T13:02:19.557Z,42.07
2024-03-26T13:04:46.626Z,41.91
2024-03-26T13:07:13.708Z,41.88
2024-03-26T13:09:40.760Z,41.37
2024-03-26T13:12:08.153Z,41.13
2024-03-26T13:14:35.555Z,40.92
2024-03-26T13:17:02.766Z,40.55
2024-03-26T13:19:32.574Z,40.81
2024-03-26T13:21:59.637Z,40.86
2024-03-26T13:24:26.688Z,40.97
2024-03-26T13:26:53.799Z,41.02
2024-03-26T13:29:20.868Z,41.16
2024-03-26T13:31:47.930Z,41.49
2024-03-26T13:34:14.976Z,41.52
2024-03-26T13:36:42.905Z,41.06
2024-03-26T13:39:10.430Z,40.70
2024-03-26T13:41:37.593Z,40.67
2024-03-26T13:44:04.769Z,40.35
2024-03-26T13:46:32.136Z,40.33
2024-03-26T13:48:59.229Z,40.42
2024-03-26T13:51:27.338Z,40.13
2024-03-26T13:53:54.413Z,40.24
2024-03-26T13:56:21.473Z,40.05
2024-03-26T13:58:48.530Z,39.73
2024-03-26T14:01:15.590Z,39.69
2024-03-26T14:03:42.654Z,39.95
2024-03-26T14:06:09.759Z,39.70
2024-03-26T14:08:37.402Z,39.79
2024-03-26T14:11:04.975Z,39.91
2024-03-26T14:13:32.035Z,39.91
2024-03-26T14:15:59.128Z,39.70
2024-03-26T14:18:26.202Z,39.35
2024-03-26T14:20:53.285Z,39.59
2024-03-26T14:23:20.337Z,39.61
2024-03-26T14:25:47.436Z,39.56
2024-03-26T14:28:14.772Z,39.54
2024-03-26T14:30:41.826Z,39.22
2024-03-26T14:33:09.727Z,38.90
2024-03-26T14:35:36.813Z,38.93
2024-03-26T14:38:04.027Z,38.65
2024-03-26T14:40:31.268Z,38.39
2024-03-26T14:42:58.340Z,38.56
2024-03-26T14:45:25.401Z,38.34
2024-03-26T14:47:53.005Z,38.35
2024-03-26T14:50:20.063Z,38.65
2024-03-26T14:52:47.194Z,39.01
2024-03-26T14:55:14.369Z,38.76
2024-03-26T14:57:42.099Z,38.78
2024-03-26T15:00:12.698Z,39.14
2024-03-26T15:02:39.751Z,39.41
2024-03-26T15:05:09.314Z,39.54
2024-03-26T15:07:36.379Z,39.35
2024-03-26T15:10:05.054Z,39.11
2024-03-26T15:12:32.127Z,39.22
2024-03-26T15:14:59.214Z,38.92
2024-03-26T15:17:26.425Z,38.89
2024-03-26T15:19:53.510Z,38.57
2024-03-26T15:22:20.599Z,38.94
2024-03-26T15:24:47.935Z,38.91
2024-03-26T15:27:14.988Z,39.17
2024-03-26T15:30:00.869Z,38.92
2024-03-26T15:32:28.322Z,39.09
2024-03-26T15:34:56.393Z,39.27
2024-03-26T15:37:23.464Z,39.12
2024-03-26T15:39:50.517Z,39.27
2024-03-26T15:42:17.924Z,39.45
2024-03-26T15:44:45.039Z,39.50
2024-03-26T15:47:13.271Z,39.56
2024-03-26T15:49:40.496Z,39.53
2024-03-26T15:52:07.947Z,39.50
2024-03-26T15:54:35.012Z,39.60
2024-03-26T15:57:02.088Z,39.63
2024-03-26T15:59:29.211Z,39.53
2024-03-26T16:01:56.323Z,39.69
2024-03-26T16:04:24.639Z,39.81
2024-03-26T16:06:52.320Z,39.76
2024-03-26T16:09:22.191Z,39.89
2024-03-26T16:11:49.267Z,40.07
2024-03-26T16:14:16.983Z,40.30
2024-03-26T16:16:44.555Z,40.36
2024-03-26T16:19:13.935Z,40.35
2024-03-26T16:21:42.341Z,40.40
2024-03-26T16:24:09.572Z,40.52
2024-03-26T16:26:36.806Z,40.40
2024-03-26T16:29:05.231Z,40.55
2024-03-26T16:31:32.294Z,40.38
2024-03-26T16:34:00.138Z,40.48
2024-03-26T16:36:28.211Z,40.68
2024-03-26T16:38:55.333Z,40.88
2024-03-26T16:41:36.502Z,41.01
2024-03-26T16:44:03.710Z,40.89
2024-03-26T16:46:30.929Z,40.99
2024-03-26T16:48:58.056Z,41.01
2024-03-26T16:51:25.561Z,41.01
2024-03-26T16:53:52.706Z,41.08
2024-03-26T16:56:19.823Z,41.24
2024-03-26T16:58:49.976Z,41.33
2024-03-26T17:01:17.051Z,41.37
2024-03-26T17:03:44.179Z,41.44
2024-03-26T17:06:14.056Z,41.57
2024-03-26T17:08:41.449Z,41.66
2024-03-26T17:11:08.691Z,41.71
2024-03-26T17:13:35.788Z,41.75
2024-03-26T17:16:03.040Z,41.73
2024-03-26T17:18:31.149Z,41.83
2024-03-26T17:20:58.703Z,41.97
2024-03-26T17:23:26.045Z,41.98
2024-03-26T17:25:53.410Z,42.07
2024-03-26T17:28:20.692Z,42.16
2024-03-26T17:30:47.949Z,42.31
2024-03-26T17:33:16.522Z,42.31
2024-03-26T17:35:44.561Z,42.36
2024-03-26T17:38:12.128Z,42.53
2024-03-26T17:40:42.341Z,42.39
2024-03-26T17:43:09.701Z,42.41
2024-03-26T17:45:36.804Z,42.49
2024-03-26T17:48:04.613Z,42.43
2024-03-26T17:50:34.627Z,42.64
2024-03-26T17:53:01.876Z,42.70
2024-03-26T17:55:29.234Z,42.75
2024-03-26T17:57:56.485Z,42.78
2024-03-26T18:00:23.838Z,42.75
2024-03-26T18:02:52.326Z,42.82
2024-03-26T18:05:19.992Z,42.88
2024-03-26T18:07:47.257Z,43.16
2024-03-26T18:10:14.408Z,43.40
2024-03-26T18:12:42.141Z,43.89
2024-03-26T18:15:10.620Z,44.33
2024-03-26T18:17:38.001Z,44.69
2024-03-26T18:20:06.448Z,44.82
2024-03-26T18:22:33.514Z,44.85
2024-03-26T18:25:01.472Z,44.91
2024-03-26T18:27:28.686Z,44.88
2024-03-26T18:29:55.962Z,45.00
2024-03-26T18:32:23.036Z,45.15
2024-03-26T18:34:51.072Z,45.44
2024-03-26T18:37:18.155Z,45.71
2024-03-26T18:39:45.210Z,46.03
2024-03-26T18:42:12.519Z,46.29
2024-03-26T18:44:39.927Z,46.59
2024-03-26T18:47:06.990Z,46.66
2024-03-26T18:49:34.055Z,46.75
2024-03-26T18:52:01.130Z,46.88
2024-03-26T18:54:28.534Z,47.07
2024-03-26T18:56:55.629Z,47.45
2024-03-26T18:59:24.302Z,47.65
2024-03-26T19:01:51.462Z,47.67
2024-03-26T19:04:18.631Z,47.79
2024-03-26T19:06:45.710Z,47.88
2024-03-26T19:09:13.577Z,48.07
2024-03-26T19:11:40.723Z,48.25
2024-03-26T19:14:08.209Z,48.21
2024-03-26T19:16:35.601Z,48.04
2024-03-26T19:19:02.940Z,47.98
2024-03-26T19:21:30.000Z,48.05
2024-03-26T19:23:57.088Z,48.07
2024-03-26T19:26:24.141Z,48.01
2024-03-26T19:28:51.208Z,48.27
2024-03-26T19:31:18.459Z,48.46
2024-03-26T19:33:46.008Z,48.58
2024-03-26T19:36:15.531Z,48.57
2024-03-26T19:38:42.616Z,48.69
2024-03-26T19:41:09.807Z,48.88
2024-03-26T19:43:39.804Z,48.98
2024-03-26T19:46:08.077Z,49.02
2024-03-26T19:48:36.240Z,49.24
2024-03-26T19:51:07.114Z,49.36
2024-03-26T19:53:34.527Z,49.69
2024-03-26T19:56:07.108Z,49.83
2024-03-26T19:58:34.448Z,49.95
2024-03-26T20:01:02.349Z,49.85
2024-03-26T20:03:29.877Z,49.92
2024-03-26T20:06:01.596Z,49.99
2024-03-26T20:08:28.773Z,50.12
2024-03-26T20:10:56.599Z,50.33
2024-03-26T20:13:23.796Z,50.46
2024-03-26T20:15:53.963Z,50.52
2024-03-26T20:18:21.164Z,50.50
2024-03-26T20:20:56.105Z,50.59
2024-03-26T20:23:23.740Z,50.83
2024-03-26T20:26:04.988Z,50.95
2024-03-26T20:28:32.363Z,51.09
2024-03-26T20:31:11.984Z,51.11
2024-03-26T20:33:40.707Z,51.24
2024-03-26T20:36:08.389Z,51.42
2024-03-26T20:38:35.472Z,51.60
2024-03-26T20:41:02.994Z,51.78
2024-03-26T20:43:30.774Z,51.93
2024-03-26T20:45:57.972Z,52.09
2024-03-26T20:48:25.182Z,52.24
2024-03-26T20:50:52.278Z,52.26
2024-03-26T20:53:20.579Z,52.28
2024-03-26T20:55:48.747Z,52.28
2024-03-26T20:58:16.000Z,52.26
2024-03-26T21:00:43.292Z,52.39
2024-03-26T21:03:10.540Z,52.54
2024-03-26T21:05:37.617Z,52.69
2024-03-26T21:08:05.420Z,52.82
2024-03-26T21:10:32.661Z,52.92
2024-03-26T21:12:59.749Z,53.04
2024-03-26T21:15:29.331Z,53.01
2024-03-26T21:17:59.910Z,53.02
2024-03-26T21:20:27.480Z,53.14
2024-03-26T21:22:55.025Z,53.22
2024-03-26T21:25:23.002Z,53.34
2024-03-26T21:27:58.013Z,53.39
2024-03-26T21:30:26.155Z,53.38
2024-03-26T21:32:53.295Z,53.55
2024-03-26T21:35:20.371Z,53.61
2024-03-26T21:37:47.478Z,53.68
2024-03-26T21:40:16.959Z,53.72
2024-03-26T21:42:44.058Z,53.87
2024-03-26T21:45:11.175Z,53.97
2024-03-26T21:47:38.350Z,53.97
2024-03-26T21:50:06.395Z,53.94
2024-03-26T21:52:33.979Z,54.11
2024-03-26T21:55:45.122Z,54.15
2024-03-26T22:37:48.124Z,54.45
2024-03-26T22:55:08.405Z,54.35
2024-03-26T23:37:13.314Z,53.90
